Time;durP1;ratioP1;P1;durP2;ratioP2;P2;SDS_P1;SDS_P2;PMS_P1;PMS_P2;Temp;Humidity;BMP_temperature;BMP_pressure;BME280_temperature;BME280_humidity;BME280_pressure;Samples;Min_cycle;Max_cycle;Signal;HPM_P1;HPM_P2
2023/03/07 00:00:04;;;;;;;8.57;5.83;;;4.80;99.90;;;;;;4212898;28;20650;-62
2023/03/07 00:02:05;;;;;;;11.50;5.53;;;4.80;99.90;;;;;;4212600;28;20625;-65
2023/03/07 00:04:06;;;;;;;9.97;5.37;;;4.70;99.90;;;;;;4213028;28;20070;-63
2023/03/07 00:06:10;;;;;;;9.27;5.20;;;4.60;99.90;;;;;;4213024;28;20035;-64
2023/03/07 00:08:11;;;;;;;10.60;5.30;;;4.60;99.90;;;;;;4212608;28;20292;-62
2023/03/07 00:10:12;;;;;;;10.73;4.97;;;4.60;99.90;;;;;;4206154;28;20331;-68
2023/03/07 00:12:14;;;;;;;8.93;5.60;;;4.50;99.90;;;;;;4196982;28;20310;-62
2023/03/07 00:14:15;;;;;;;11.10;6.27;;;4.50;99.90;;;;;;4196000;28;20265;-62
2023/03/07 00:16:18;;;;;;;8.77;5.60;;;4.50;99.90;;;;;;4199917;28;20835;-63
2023/03/07 00:18:19;;;;;;;11.13;6.20;;;4.50;99.90;;;;;;4212742;28;20269;-68
2023/03/07 00:20:21;;;;;;;8.83;5.60;;;4.50;99.90;;;;;;4213357;28;20264;-62
2023/03/07 00:22:22;;;;;;;9.43;5.37;;;4.50;99.90;;;;;;4211992;28;20322;-66
2023/03/07 00:24:23;;;;;;;10.80;5.77;;;4.40;99.90;;;;;;4213432;28;20260;-63
2023/03/07 00:26:26;;;;;;;8.47;5.23;;;4.40;99.90;;;;;;4212465;28;20317;-63
2023/03/07 00:28:27;;;;;;;7.60;5.30;;;4.40;99.90;;;;;;4213162;28;20296;-62
2023/03/07 00:30:29;;;;;;;10.00;5.70;;;4.40;99.90;;;;;;4212204;28;21267;-62
2023/03/07 00:32:30;;;;;;;10.83;5.33;;;4.40;99.90;;;;;;4212389;28;20285;-62
2023/03/07 00:34:32;;;;;;;11.50;6.07;;;4.30;99.90;;;;;;4194376;28;20707;-62
2023/03/07 00:36:33;;;;;;;8.67;5.07;;;4.30;99.90;;;;;;4212952;28;20789;-62
2023/03/07 00:38:34;;;;;;;9.20;5.67;;;4.30;99.90;;;;;;4212438;28;20281;-62
2023/03/07 00:40:35;;;;;;;9.27;5.50;;;4.30;99.90;;;;;;4212572;28;20825;-62
2023/03/07 00:42:36;;;;;;;7.97;5.50;;;4.30;99.90;;;;;;4213007;28;20313;-62
2023/03/07 00:44:37;;;;;;;7.83;4.50;;;4.20;99.90;;;;;;4211876;28;20273;-62
2023/03/07 00:46:38;;;;;;;11.87;4.87;;;4.20;99.90;;;;;;4212813;28;20265;-63
2023/03/07 00:48:40;;;;;;;6.57;4.93;;;4.20;99.90;;;;;;4212452;28;20296;-66
2023/03/07 00:50:41;;;;;;;11.17;5.67;;;4.20;99.90;;;;;;4213194;28;20292;-64
2023/03/07 00:52:42;;;;;;;9.00;5.60;;;4.10;99.90;;;;;;4210876;28;20302;-63
2023/03/07 00:54:43;;;;;;;6.53;4.47;;;4.10;99.90;;;;;;4213087;28;20764;-63
2023/03/07 00:56:44;;;;;;;8.80;5.10;;;4.10;99.90;;;;;;4212032;28;20269;-67
2023/03/07 00:58:46;;;;;;;10.53;5.57;;;4.10;99.90;;;;;;4213184;28;20322;-66
2023/03/07 01:00:47;;;;;;;8.63;4.70;;;4.10;99.90;;;;;;4210748;28;20322;-63
2023/03/07 01:02:50;;;;;;;8.93;5.00;;;4.00;99.90;;;;;;4213022;28;20264;-63
2023/03/07 01:04:51;;;;;;;8.77;4.57;;;4.00;99.90;;;;;;4210270;28;20253;-61
2023/03/07 01:06:52;;;;;;;9.83;5.50;;;4.00;99.90;;;;;;4212260;28;20268;-66
2023/03/07 01:08:56;;;;;;;9.80;5.77;;;4.00;99.90;;;;;;4194088;28;20339;-67
2023/03/07 01:11:00;;;;;;;8.90;4.77;;;4.00;99.90;;;;;;4211927;28;20265;-67
2023/03/07 01:13:02;;;;;;;7.17;4.50;;;4.00;99.90;;;;;;4212498;28;20388;-68
2023/03/07 01:15:05;;;;;;;9.60;5.37;;;4.00;99.90;;;;;;4211146;28;20290;-63
2023/03/07 01:17:06;;;;;;;10.27;4.87;;;4.00;99.90;;;;;;4212399;28;20713;-67
2023/03/07 01:19:11;;;;;;;7.47;4.47;;;4.00;99.90;;;;;;4211734;28;20289;-65
2023/03/07 01:21:21;;;;;;;10.40;4.63;;;4.10;99.90;;;;;;4211861;28;20318;-63
2023/03/07 01:23:22;;;;;;;8.98;5.05;;;4.20;99.90;;;;;;4211433;28;20284;-66
2023/03/07 01:25:24;;;;;;;11.13;5.50;;;4.20;99.90;;;;;;4212447;28;20513;-60
2023/03/07 01:27:25;;;;;;;7.43;4.70;;;4.20;99.90;;;;;;4193130;28;20667;-67
2023/03/07 01:29:26;;;;;;;10.20;4.90;;;4.20;99.90;;;;;;4211818;28;20281;-60
2023/03/07 01:31:29;;;;;;;9.03;4.70;;;4.20;99.90;;;;;;4211575;28;20272;-62
2023/03/07 01:33:30;;;;;;;8.73;5.30;;;4.20;99.90;;;;;;4212616;28;20682;-65
2023/03/07 01:35:41;;;;;;;9.77;5.60;;;4.20;99.90;;;;;;4211297;28;20314;-63
2023/03/07 01:37:42;;;;;;;9.25;5.38;;;4.10;99.90;;;;;;4211705;28;20288;-63
2023/03/07 01:39:43;;;;;;;10.27;5.97;;;4.00;99.90;;;;;;4210741;28;20478;-64
2023/03/07 01:41:44;;;;;;;10.70;5.37;;;4.00;99.90;;;;;;4211455;28;20613;-64
2023/03/07 01:43:46;;;;;;;9.80;5.97;;;4.00;99.90;;;;;;4211413;28;20686;-63
2023/03/07 01:45:50;;;;;;;9.17;5.63;;;4.00;99.90;;;;;;4212003;28;20273;-63
2023/03/07 01:47:51;;;;;;;9.67;6.03;;;4.00;99.90;;;;;;4211774;28;20266;-63
2023/03/07 01:49:53;;;;;;;9.20;6.17;;;4.00;99.90;;;;;;4211404;28;20269;-61
2023/03/07 01:52:03;;;;;;;11.20;6.50;;;3.90;99.90;;;;;;4211432;28;20265;-63
2023/03/07 01:54:06;;;;;;;8.57;6.03;;;3.80;99.90;;;;;;4210226;28;20265;-65
2023/03/07 01:56:08;;;;;;;10.97;5.90;;;3.80;99.90;;;;;;4211412;28;20036;-62
2023/03/07 01:58:12;;;;;;;9.03;5.73;;;3.90;99.90;;;;;;4210384;28;20647;-62
2023/03/07 02:00:24;;;;;;;12.20;5.47;;;3.90;99.90;;;;;;4211477;28;21842;-64
2023/03/07 02:02:26;;;;;;;9.57;5.57;;;3.90;99.90;;;;;;4210967;28;20664;-64
2023/03/07 02:04:37;;;;;;;8.73;5.77;;;4.00;99.90;;;;;;4211384;28;20278;-63
2023/03/07 02:06:39;;;;;;;9.07;5.40;;;4.00;99.90;;;;;;4210930;28;20265;-62
2023/03/07 02:08:42;;;;;;;14.37;6.37;;;4.00;99.90;;;;;;4211655;28;20649;-64
2023/03/07 02:10:43;;;;;;;9.83;6.27;;;3.90;99.90;;;;;;4210323;28;20607;-62
2023/03/07 02:12:45;;;;;;;9.63;5.80;;;3.80;99.90;;;;;;4211829;28;20314;-62
2023/03/07 02:14:49;;;;;;;9.27;5.37;;;3.80;99.90;;;;;;4210701;28;20268;-65
2023/03/07 02:16:51;;;;;;;15.07;6.50;;;3.70;99.90;;;;;;4211485;28;20840;-64
2023/03/07 02:18:52;;;;;;;11.50;7.40;;;3.70;99.90;;;;;;4210828;28;20306;-62
2023/03/07 02:21:08;;;;;;;15.43;8.43;;;3.60;99.90;;;;;;4212054;28;20300;-65
2023/03/07 02:23:38;;;;;;;14.37;8.77;;;3.60;99.90;;;;;;4191981;28;20300;-63
2023/03/07 02:25:42;;;;;;;15.50;8.65;;;3.50;99.90;;;;;;4167023;28;20813;-63
2023/03/07 02:27:46;;;;;;;20.17;10.23;;;3.50;99.90;;;;;;4210032;28;20035;-61
2023/03/07 02:29:47;;;;;;;20.17;10.03;;;3.50;99.90;;;;;;4211791;28;20361;-63
2023/03/07 02:31:48;;;;;;;18.27;10.37;;;3.40;99.90;;;;;;4210521;28;20302;-62
2023/03/07 02:33:49;;;;;;;17.17;10.60;;;3.40;99.90;;;;;;4211634;28;20712;-66
2023/03/07 02:35:55;;;;;;;18.40;10.50;;;3.30;99.90;;;;;;4209838;28;20261;-64
2023/03/07 02:38:00;;;;;;;18.47;10.43;;;3.30;99.90;;;;;;4210086;28;20623;-68
2023/03/07 02:40:06;;;;;;;18.80;10.20;;;3.20;99.90;;;;;;4209767;28;20705;-66
2023/03/07 02:42:12;;;;;;;19.20;9.87;;;3.20;99.90;;;;;;4210622;28;20269;-62
2023/03/07 02:44:14;;;;;;;19.20;10.27;;;3.20;99.90;;;;;;4210792;28;20305;-62
2023/03/07 02:46:15;;;;;;;16.40;9.83;;;3.10;99.90;;;;;;4210845;28;20663;-68
2023/03/07 02:48:16;;;;;;;16.10;9.47;;;3.00;99.90;;;;;;4211144;28;20703;-67
2023/03/07 02:50:17;;;;;;;21.00;10.63;;;3.10;99.90;;;;;;4210946;28;20268;-64
2023/03/07 02:52:20;;;;;;;25.93;10.43;;;3.10;99.90;;;;;;4211248;28;20294;-61
2023/03/07 02:54:21;;;;;;;18.97;10.20;;;3.10;99.90;;;;;;4209666;28;20302;-62
2023/03/07 02:56:23;;;;;;;18.90;9.93;;;3.10;99.90;;;;;;4211410;28;20253;-62
2023/03/07 02:58:24;;;;;;;16.17;8.97;;;3.10;99.90;;;;;;4210032;28;20269;-62
2023/03/07 03:00:25;;;;;;;17.37;10.03;;;3.00;99.90;;;;;;4210964;28;20756;-61
2023/03/07 03:02:26;;;;;;;18.77;10.63;;;3.00;99.90;;;;;;4210356;28;20261;-64
2023/03/07 03:04:27;;;;;;;17.73;9.83;;;3.00;99.90;;;;;;4210722;28;20598;-63
2023/03/07 03:06:29;;;;;;;17.03;8.70;;;3.00;99.90;;;;;;4210486;28;20257;-62
2023/03/07 03:08:30;;;;;;;17.40;10.30;;;3.00;99.90;;;;;;4211260;28;20277;-63
2023/03/07 03:10:31;;;;;;;20.40;11.20;;;2.90;99.90;;;;;;4210301;28;20744;-62
2023/03/07 03:12:32;;;;;;;17.10;10.13;;;2.90;99.90;;;;;;4210461;28;20330;-63
2023/03/07 03:14:33;;;;;;;19.97;9.70;;;2.80;99.90;;;;;;4192463;28;20817;-61
2023/03/07 03:16:34;;;;;;;17.33;9.13;;;2.80;99.90;;;;;;4210816;28;20601;-62
2023/03/07 03:18:37;;;;;;;16.70;9.53;;;2.80;99.90;;;;;;4211003;28;20662;-63
2023/03/07 03:20:39;;;;;;;17.13;9.87;;;2.80;99.90;;;;;;4210559;28;20269;-67
2023/03/07 03:22:40;;;;;;;17.50;10.33;;;2.80;99.90;;;;;;4210379;28;20288;-62
2023/03/07 03:24:42;;;;;;;18.73;10.20;;;2.80;99.90;;;;;;4191010;28;20274;-61
2023/03/07 03:26:43;;;;;;;20.20;10.13;;;2.80;99.90;;;;;;4211384;28;20337;-62
2023/03/07 03:28:44;;;;;;;22.80;11.27;;;2.80;99.90;;;;;;4211507;28;20297;-63
2023/03/07 03:30:55;;;;;;;23.50;11.83;;;2.80;99.90;;;;;;4214441;28;20265;-62
2023/03/07 03:32:56;;;;;;;24.35;11.73;;;2.70;99.90;;;;;;4213307;28;20272;-62
2023/03/07 03:34:57;;;;;;;21.60;11.23;;;2.60;99.90;;;;;;4214503;28;20048;-62
2023/03/07 03:36:58;;;;;;;24.17;11.60;;;2.60;99.90;;;;;;4212271;28;20269;-65
2023/03/07 03:39:00;;;;;;;18.67;11.47;;;2.60;99.90;;;;;;4214211;28;20288;-64
2023/03/07 03:41:06;;;;;;;20.50;12.27;;;2.60;99.90;;;;;;4212841;28;20326;-65
2023/03/07 03:43:07;;;;;;;25.33;12.57;;;2.60;99.90;;;;;;4214183;28;20280;-63
2023/03/07 03:45:09;;;;;;;19.27;11.43;;;2.60;99.90;;;;;;4213116;28;20269;-63
2023/03/07 03:47:11;;;;;;;24.67;12.27;;;2.60;99.90;;;;;;4214130;28;20310;-66
2023/03/07 03:49:12;;;;;;;26.20;13.20;;;2.60;99.90;;;;;;4213087;28;20296;-68
2023/03/07 03:51:13;;;;;;;27.47;12.37;;;2.50;99.90;;;;;;4213046;28;20349;-65
2023/03/07 03:53:14;;;;;;;29.23;12.50;;;2.50;99.90;;;;;;4212614;28;20356;-62
2023/03/07 03:55:15;;;;;;;25.53;13.73;;;2.50;99.90;;;;;;4213402;28;20789;-63
2023/03/07 03:57:19;;;;;;;22.87;12.87;;;2.50;99.90;;;;;;4212809;28;20273;-63
2023/03/07 03:59:21;;;;;;;22.60;12.60;;;2.50;99.90;;;;;;4212884;28;20334;-62
2023/03/07 04:01:25;;;;;;;22.93;12.30;;;2.50;99.90;;;;;;4213911;28;20264;-62
2023/03/07 04:03:26;;;;;;;20.37;11.63;;;2.50;99.90;;;;;;4212774;28;20265;-63
2023/03/07 04:05:27;;;;;;;23.10;11.80;;;2.50;99.90;;;;;;4213981;28;21384;-62
2023/03/07 04:07:29;;;;;;;23.60;12.43;;;2.50;99.90;;;;;;4212663;28;20260;-62
2023/03/07 04:09:30;;;;;;;20.83;11.80;;;2.50;99.90;;;;;;4213845;28;20296;-63
2023/03/07 04:11:31;;;;;;;22.03;11.77;;;2.50;99.90;;;;;;4211181;28;20821;-65
2023/03/07 04:13:34;;;;;;;25.57;12.03;;;2.50;99.90;;;;;;4213025;28;20288;-62
2023/03/07 04:15:35;;;;;;;26.80;13.70;;;2.50;99.90;;;;;;4212558;28;20257;-62
2023/03/07 04:17:36;;;;;;;25.90;13.67;;;2.60;99.90;;;;;;4213561;28;20276;-61
2023/03/07 04:19:37;;;;;;;25.53;13.13;;;2.50;99.90;;;;;;4205374;28;20277;-61
2023/03/07 04:21:39;;;;;;;25.93;13.30;;;2.50;99.90;;;;;;4196394;28;20269;-62
2023/03/07 04:23:40;;;;;;;25.23;13.70;;;2.40;99.90;;;;;;4195934;28;20319;-63
2023/03/07 04:25:48;;;;;;;24.63;12.57;;;2.40;99.90;;;;;;4196214;28;20269;-61
2023/03/07 04:27:49;;;;;;;26.87;12.20;;;2.40;99.90;;;;;;4204247;28;20698;-62
2023/03/07 04:29:50;;;;;;;22.80;13.30;;;2.40;99.90;;;;;;4212592;28;20345;-62
2023/03/07 04:31:51;;;;;;;27.20;12.60;;;2.40;99.90;;;;;;4211576;28;20318;-62
2023/03/07 04:33:54;;;;;;;24.37;11.83;;;2.40;99.90;;;;;;4211406;28;20350;-62
2023/03/07 04:35:55;;;;;;;25.10;14.20;;;2.40;99.90;;;;;;4211944;28;20344;-62
2023/03/07 04:37:56;;;;;;;24.47;12.30;;;2.40;99.90;;;;;;4195385;28;20430;-63
2023/03/07 04:39:57;;;;;;;25.17;12.43;;;2.30;99.90;;;;;;4195157;28;21045;-66
2023/03/07 04:41:59;;;;;;;30.57;13.27;;;2.40;99.90;;;;;;4195123;28;20281;-62
2023/03/07 04:44:00;;;;;;;26.57;12.83;;;2.40;99.90;;;;;;4196579;28;20715;-63
2023/03/07 04:46:01;;;;;;;22.23;12.63;;;2.40;99.90;;;;;;4204966;28;20276;-64
2023/03/07 04:48:03;;;;;;;25.10;13.10;;;2.40;99.90;;;;;;4213452;28;20284;-64
2023/03/07 04:50:04;;;;;;;24.97;12.90;;;2.30;99.90;;;;;;4212368;28;20346;-68
2023/03/07 04:52:06;;;;;;;26.33;11.83;;;2.40;99.90;;;;;;4212090;28;20281;-62
2023/03/07 04:54:07;;;;;;;21.97;12.13;;;2.40;99.90;;;;;;4211214;28;20256;-62
2023/03/07 04:56:09;;;;;;;23.67;12.40;;;2.40;99.90;;;;;;4211512;28;20651;-62
2023/03/07 04:58:12;;;;;;;24.70;12.77;;;2.40;99.90;;;;;;4210469;28;20261;-63
2023/03/07 05:00:13;;;;;;;24.57;12.80;;;2.40;99.90;;;;;;4210602;28;20326;-63
2023/03/07 05:02:15;;;;;;;24.70;13.23;;;2.40;99.90;;;;;;4211725;28;20265;-62
2023/03/07 05:04:16;;;;;;;25.30;13.47;;;2.40;99.90;;;;;;4211347;28;20257;-65
2023/03/07 05:06:17;;;;;;;22.90;12.47;;;2.40;99.90;;;;;;4210247;28;20265;-62
2023/03/07 05:08:19;;;;;;;23.43;13.03;;;2.30;99.90;;;;;;4210965;28;20380;-62
2023/03/07 05:10:20;;;;;;;23.70;12.57;;;2.40;99.90;;;;;;4193749;28;21090;-62
2023/03/07 05:12:22;;;;;;;27.03;13.40;;;2.40;99.90;;;;;;4211181;28;20683;-62
2023/03/07 05:14:23;;;;;;;23.40;12.13;;;2.40;99.90;;;;;;4210101;28;21297;-62
2023/03/07 05:16:24;;;;;;;25.10;12.73;;;2.30;99.90;;;;;;4210275;28;21009;-61
2023/03/07 05:18:26;;;;;;;21.67;12.20;;;2.30;99.90;;;;;;4211328;28;20823;-61
2023/03/07 05:20:28;;;;;;;22.43;12.30;;;2.30;99.90;;;;;;4210360;28;20289;-67
2023/03/07 05:22:29;;;;;;;20.20;11.80;;;2.30;99.90;;;;;;4211205;28;20697;-68
2023/03/07 05:24:30;;;;;;;24.37;12.33;;;2.30;99.90;;;;;;4211141;28;20261;-63
2023/03/07 05:26:32;;;;;;;20.10;10.73;;;2.30;99.90;;;;;;4210626;28;20276;-61
2023/03/07 05:28:33;;;;;;;22.90;11.60;;;2.30;99.90;;;;;;4211867;28;20269;-63
2023/03/07 05:30:34;;;;;;;23.63;11.80;;;2.30;99.90;;;;;;4211467;28;20361;-61
2023/03/07 05:32:35;;;;;;;22.50;11.20;;;2.40;99.90;;;;;;4206847;28;20334;-62
2023/03/07 05:34:37;;;;;;;20.30;11.47;;;2.40;99.90;;;;;;4194040;28;20273;-71
2023/03/07 05:36:38;;;;;;;21.57;10.50;;;2.40;99.90;;;;;;4192613;28;20307;-62
2023/03/07 05:38:39;;;;;;;23.13;12.03;;;2.40;99.90;;;;;;4209742;28;20290;-64
2023/03/07 05:40:40;;;;;;;21.17;11.63;;;2.40;99.90;;;;;;4211296;28;20280;-63
2023/03/07 05:42:41;;;;;;;20.30;11.77;;;2.40;99.90;;;;;;4210736;28;20655;-64
2023/03/07 05:44:43;;;;;;;25.13;12.27;;;2.40;99.90;;;;;;4212013;28;20276;-73
2023/03/07 05:46:44;;;;;;;25.00;12.53;;;2.40;99.90;;;;;;4210625;28;20648;-63
2023/03/07 05:48:45;;;;;;;21.50;12.03;;;2.50;99.90;;;;;;4211414;28;20377;-62
2023/03/07 05:50:46;;;;;;;22.47;12.23;;;2.50;99.90;;;;;;4209472;28;20321;-63
2023/03/07 05:52:48;;;;;;;25.47;12.67;;;2.50;99.90;;;;;;4211642;28;20268;-63
2023/03/07 05:54:49;;;;;;;24.03;12.23;;;2.50;99.90;;;;;;4210487;28;20659;-62
2023/03/07 05:56:50;;;;;;;23.67;12.27;;;2.50;99.90;;;;;;4210587;28;20281;-70
2023/03/07 05:58:51;;;;;;;26.90;12.53;;;2.50;99.90;;;;;;4210704;28;20655;-64
2023/03/07 06:00:52;;;;;;;22.33;12.10;;;2.50;99.90;;;;;;4211212;28;20314;-63
2023/03/07 06:02:53;;;;;;;31.20;12.37;;;2.40;99.90;;;;;;4210329;28;20318;-65
2023/03/07 06:04:55;;;;;;;25.17;13.87;;;2.50;99.90;;;;;;4210864;28;20740;-63
2023/03/07 06:06:56;;;;;;;23.37;12.67;;;2.50;99.90;;;;;;4211246;28;20330;-69
2023/03/07 06:08:57;;;;;;;25.20;13.23;;;2.50;99.90;;;;;;4209597;28;20265;-62
2023/03/07 06:10:58;;;;;;;24.33;13.60;;;2.60;99.90;;;;;;4210986;28;20269;-62
2023/03/07 06:12:59;;;;;;;22.13;12.47;;;2.50;99.90;;;;;;4210561;28;20291;-63
2023/03/07 06:15:01;;;;;;;24.53;13.20;;;2.60;99.90;;;;;;4211626;28;20670;-63
2023/03/07 06:17:03;;;;;;;23.63;13.50;;;2.60;99.90;;;;;;4210539;28;20269;-68
2023/03/07 06:19:04;;;;;;;24.97;13.30;;;2.70;99.90;;;;;;4211762;28;20594;-68
2023/03/07 06:21:06;;;;;;;24.07;12.67;;;2.70;99.90;;;;;;4210636;28;20260;-69
2023/03/07 06:23:07;;;;;;;28.77;13.73;;;2.70;99.90;;;;;;4211411;28;20280;-62
2023/03/07 06:25:09;;;;;;;26.57;13.83;;;2.70;99.90;;;;;;4210612;28;20806;-70
2023/03/07 06:27:10;;;;;;;31.00;13.27;;;2.80;99.90;;;;;;4211192;28;20322;-63
2023/03/07 06:29:11;;;;;;;29.03;13.37;;;2.80;99.90;;;;;;4210572;28;20288;-64
2023/03/07 06:31:15;;;;;;;25.33;13.50;;;2.80;99.90;;;;;;4210750;28;20322;-65
2023/03/07 06:33:17;;;;;;;28.23;13.50;;;2.80;99.90;;;;;;4209981;28;20257;-61
2023/03/07 06:35:18;;;;;;;25.80;14.00;;;2.90;99.90;;;;;;4210596;28;20253;-66
2023/03/07 06:37:19;;;;;;;25.27;13.43;;;2.90;99.90;;;;;;4192575;28;20269;-66
2023/03/07 06:39:20;;;;;;;24.17;13.17;;;2.90;99.90;;;;;;4209289;28;20277;-61
2023/03/07 06:41:21;;;;;;;21.03;12.07;;;3.00;99.90;;;;;;4210703;28;20314;-63
2023/03/07 06:43:22;;;;;;;28.70;14.53;;;3.00;99.90;;;;;;4209439;28;20268;-66
2023/03/07 06:45:23;;;;;;;24.17;12.40;;;3.00;99.90;;;;;;4210568;28;20326;-62
2023/03/07 06:47:24;;;;;;;22.27;12.37;;;3.00;99.90;;;;;;4202432;28;20382;-63
2023/03/07 06:49:25;;;;;;;23.80;12.87;;;3.00;99.90;;;;;;4210990;28;20293;-61
2023/03/07 06:51:27;;;;;;;26.27;13.20;;;3.10;99.90;;;;;;4210215;28;21098;-61
2023/03/07 06:53:28;;;;;;;28.67;14.27;;;3.10;99.90;;;;;;4210301;28;20311;-61
2023/03/07 06:55:29;;;;;;;28.77;14.33;;;3.10;99.90;;;;;;4210148;28;20393;-60
2023/03/07 06:57:32;;;;;;;36.07;16.77;;;3.10;99.90;;;;;;4210309;28;20330;-61
2023/03/07 06:59:33;;;;;;;30.10;15.93;;;3.10;99.90;;;;;;4195703;28;20285;-61
2023/03/07 07:01:34;;;;;;;28.47;16.33;;;3.10;99.90;;;;;;4207841;28;20272;-62
2023/03/07 07:03:35;;;;;;;27.83;16.20;;;3.10;99.90;;;;;;4211873;28;20674;-63
2023/03/07 07:05:36;;;;;;;32.30;16.43;;;3.10;99.90;;;;;;4213743;28;20322;-66
2023/03/07 07:07:37;;;;;;;31.10;16.10;;;3.20;99.90;;;;;;4213523;28;20314;-66
2023/03/07 07:09:39;;;;;;;35.53;17.17;;;3.20;99.90;;;;;;4213208;28;20289;-64
2023/03/07 07:11:40;;;;;;;33.87;18.10;;;3.20;99.90;;;;;;4214490;28;20346;-70
2023/03/07 07:13:41;;;;;;;32.93;17.67;;;3.30;99.90;;;;;;4212461;28;20330;-64
2023/03/07 07:15:42;;;;;;;25.93;14.90;;;3.40;99.90;;;;;;4213809;28;20276;-65
2023/03/07 07:17:43;;;;;;;31.73;17.23;;;3.40;99.90;;;;;;4211751;28;20798;-64
2023/03/07 07:19:44;;;;;;;32.80;17.23;;;3.50;99.90;;;;;;4212280;28;20310;-63
2023/03/07 07:21:45;;;;;;;35.37;18.17;;;3.50;99.90;;;;;;4212013;28;20280;-61
2023/03/07 07:23:46;;;;;;;33.73;18.43;;;3.50;99.90;;;;;;4207775;28;20284;-62
2023/03/07 07:25:48;;;;;;;35.73;19.50;;;3.50;99.90;;;;;;4208684;28;20675;-62
2023/03/07 07:27:49;;;;;;;38.33;19.83;;;3.60;99.90;;;;;;4207730;28;20329;-62
2023/03/07 07:29:50;;;;;;;43.60;22.87;;;3.60;99.90;;;;;;4207451;28;20293;-65
2023/03/07 07:31:51;;;;;;;42.80;21.60;;;3.60;99.90;;;;;;4188428;28;20315;-66
2023/03/07 07:33:52;;;;;;;39.57;20.53;;;3.60;99.90;;;;;;4209624;28;20333;-62
2023/03/07 07:35:54;;;;;;;37.53;20.60;;;3.60;99.90;;;;;;4212098;28;20268;-65
2023/03/07 07:37:55;;;;;;;43.00;22.63;;;3.70;99.90;;;;;;4213384;28;20273;-64
2023/03/07 07:39:56;;;;;;;46.23;24.13;;;3.70;99.90;;;;;;4212277;28;20281;-65
2023/03/07 07:41:57;;;;;;;46.30;22.60;;;3.80;99.90;;;;;;4214311;28;20744;-64
2023/03/07 07:43:58;;;;;;;41.40;24.07;;;3.80;99.90;;;;;;4194367;28;20281;-64
2023/03/07 07:46:02;;;;;;;38.63;22.63;;;3.90;99.90;;;;;;4212782;28;20261;-63
2023/03/07 07:48:04;;;;;;;47.57;22.63;;;3.90;99.90;;;;;;4211769;28;20350;-64
2023/03/07 07:50:05;;;;;;;40.00;23.20;;;3.90;99.90;;;;;;4213293;28;20300;-63
2023/03/07 07:52:07;;;;;;;47.13;25.10;;;4.00;99.90;;;;;;4213156;28;20310;-66
2023/03/07 07:54:09;;;;;;;43.73;24.80;;;3.90;99.90;;;;;;4213864;28;20277;-62
2023/03/07 07:56:10;;;;;;;47.20;24.33;;;4.00;99.90;;;;;;4212106;28;20269;-64
2023/03/07 07:58:11;;;;;;;45.30;24.20;;;4.10;99.90;;;;;;4212848;28;20253;-63
2023/03/07 08:00:18;;;;;;;43.53;21.43;;;4.10;99.90;;;;;;4212638;28;20306;-64
2023/03/07 08:02:19;;;;;;;44.33;21.87;;;4.10;99.90;;;;;;4213118;28;20303;-65
2023/03/07 08:04:20;;;;;;;38.23;21.60;;;4.20;99.90;;;;;;4213162;28;20310;-62
2023/03/07 08:06:26;;;;;;;39.10;21.53;;;4.30;99.90;;;;;;4213212;28;20280;-62
2023/03/07 08:08:27;;;;;;;39.70;22.10;;;4.50;99.90;;;;;;4212659;28;20265;-62
2023/03/07 08:10:28;;;;;;;36.57;21.00;;;4.70;99.90;;;;;;4212184;28;20300;-63
2023/03/07 08:12:29;;;;;;;41.13;21.83;;;4.90;99.90;;;;;;4212653;28;20303;-63
2023/03/07 08:14:32;;;;;;;36.87;21.90;;;5.00;99.90;;;;;;4211363;28;20322;-62
2023/03/07 08:16:34;;;;;;;79.47;41.80;;;5.10;99.90;;;;;;4212936;28;20728;-63
2023/03/07 08:18:35;;;;;;;45.67;24.80;;;5.10;99.90;;;;;;4210460;28;20314;-63
2023/03/07 08:20:37;;;;;;;44.93;22.87;;;5.30;99.90;;;;;;4194915;28;20705;-63
2023/03/07 08:22:38;;;;;;;33.53;18.67;;;5.40;99.90;;;;;;4211513;28;20277;-64
2023/03/07 08:24:39;;;;;;;30.23;19.30;;;5.50;99.90;;;;;;4211935;28;20594;-64
2023/03/07 08:26:41;;;;;;;27.07;16.50;;;5.50;99.90;;;;;;4211727;28;20270;-65
2023/03/07 08:28:42;;;;;;;24.50;14.63;;;5.60;99.90;;;;;;4212844;28;20330;-63
2023/03/07 08:30:43;;;;;;;26.10;15.03;;;5.70;99.90;;;;;;4211610;28;20047;-63
2023/03/07 08:32:44;;;;;;;27.63;15.80;;;5.80;99.90;;;;;;4213363;28;20260;-64
2023/03/07 08:34:45;;;;;;;25.37;15.27;;;5.80;99.90;;;;;;4211297;28;20089;-64
2023/03/07 08:36:46;;;;;;;11.97;7.67;;;6.00;99.90;;;;;;4212766;28;20322;-64
2023/03/07 08:38:52;;;;;;;10.77;6.40;;;6.00;99.90;;;;;;4212917;28;20024;-63
2023/03/07 08:40:53;;;;;;;12.70;8.60;;;6.00;99.90;;;;;;4212810;28;20082;-65
2023/03/07 08:42:54;;;;;;;19.73;12.73;;;6.10;99.90;;;;;;4212753;28;20035;-62
2023/03/07 08:44:55;;;;;;;30.43;15.10;;;6.20;99.90;;;;;;4211557;28;20090;-61
2023/03/07 08:46:56;;;;;;;26.17;14.60;;;6.20;99.90;;;;;;4212782;28;20085;-60
2023/03/07 08:48:57;;;;;;;23.33;14.40;;;6.20;99.90;;;;;;4210997;28;20040;-63
2023/03/07 08:51:10;;;;;;;19.87;12.30;;;6.10;99.90;;;;;;4213115;28;20044;-61
2023/03/07 08:53:12;;;;;;;19.40;10.97;;;6.10;99.90;;;;;;4212117;28;20109;-68
2023/03/07 08:55:15;;;;;;;17.93;9.97;;;6.20;99.90;;;;;;4213318;28;20417;-62
2023/03/07 08:57:16;;;;;;;15.80;9.20;;;6.20;99.90;;;;;;4211722;28;20418;-61
2023/03/07 08:59:17;;;;;;;16.43;10.57;;;6.30;99.90;;;;;;4211762;28;20043;-63
2023/03/07 09:01:18;;;;;;;10.80;7.00;;;6.40;99.90;;;;;;4207638;28;20511;-68
2023/03/07 09:03:20;;;;;;;11.83;6.30;;;6.40;99.90;;;;;;4211263;28;20040;-71
2023/03/07 09:05:21;;;;;;;11.23;7.00;;;6.40;99.90;;;;;;4211242;28;20089;-63
2023/03/07 09:07:22;;;;;;;12.87;6.43;;;6.30;99.90;;;;;;4212272;28;20089;-66
2023/03/07 09:09:23;;;;;;;12.33;6.37;;;6.40;99.90;;;;;;4193113;28;20058;-65
2023/03/07 09:11:25;;;;;;;10.27;5.90;;;6.40;99.90;;;;;;4211959;28;21473;-64
2023/03/07 09:13:26;;;;;;;9.97;5.87;;;6.40;99.90;;;;;;4210761;28;20447;-64
2023/03/07 09:15:27;;;;;;;10.27;5.60;;;6.50;99.90;;;;;;4211780;28;20058;-65
2023/03/07 09:17:29;;;;;;;12.27;6.30;;;6.60;99.90;;;;;;4211087;28;20098;-62
2023/03/07 09:19:30;;;;;;;13.03;6.20;;;6.70;99.90;;;;;;4211431;28;20036;-65
2023/03/07 09:21:31;;;;;;;10.90;5.57;;;6.80;99.90;;;;;;4212481;28;20036;-63
2023/03/07 09:23:33;;;;;;;9.67;5.50;;;7.00;99.90;;;;;;4210875;28;20040;-63
2023/03/07 09:25:35;;;;;;;9.97;5.37;;;7.10;99.90;;;;;;4193792;28;20094;-62
2023/03/07 09:27:36;;;;;;;9.17;5.20;;;7.30;99.90;;;;;;4210995;28;20906;-64
2023/03/07 09:29:37;;;;;;;11.33;5.37;;;7.50;99.90;;;;;;4212348;28;20070;-64
2023/03/07 09:31:40;;;;;;;9.33;5.07;;;7.80;99.90;;;;;;4211344;28;20028;-63
2023/03/07 09:33:42;;;;;;;8.03;5.37;;;8.00;99.90;;;;;;4212574;28;20078;-63
2023/03/07 09:35:43;;;;;;;7.87;5.13;;;8.20;99.90;;;;;;4210618;28;20120;-63
2023/03/07 09:37:44;;;;;;;6.90;4.63;;;8.20;99.90;;;;;;4193463;28;20514;-66
2023/03/07 09:39:48;;;;;;;6.73;4.30;;;8.40;99.90;;;;;;4210975;28;20469;-66
2023/03/07 09:42:18;;;;;;;8.00;4.87;;;8.50;99.90;;;;;;4211256;28;20036;-62
2023/03/07 09:44:50;;;;;;;8.13;5.28;;;8.60;99.90;;;;;;4211228;28;20040;-62
2023/03/07 09:46:54;;;;;;;7.37;4.67;;;8.70;99.90;;;;;;4212010;28;20023;-61
2023/03/07 09:49:04;;;;;;;6.40;4.20;;;8.80;99.90;;;;;;4194311;28;20423;-61
2023/03/07 09:51:20;;;;;;;7.35;4.35;;;9.00;99.90;;;;;;4206104;28;20093;-62
2023/03/07 09:53:52;;;;;;;7.90;4.77;;;9.00;99.90;;;;;;4209369;28;20113;-61
2023/03/07 09:55:57;;;;;;;7.90;4.77;;;9.00;99.90;;;;;;4211856;28;20093;-61
2023/03/07 09:58:05;;;;;;;7.23;3.90;;;9.10;99.90;;;;;;4210746;28;20036;-66
2023/03/07 10:00:19;;;;;;;7.90;4.40;;;9.30;99.90;;;;;;4211393;28;20040;-66
2023/03/07 10:02:40;;;;;;;7.27;4.90;;;9.30;99.90;;;;;;4210471;28;20028;-59
2023/03/07 10:04:47;;;;;;;7.03;4.23;;;9.50;99.90;;;;;;4211359;28;20549;-61
2023/03/07 10:06:53;;;;;;;8.23;4.33;;;9.60;99.90;;;;;;4210779;28;20036;-65
2023/03/07 10:08:56;;;;;;;7.40;4.70;;;9.70;99.90;;;;;;4210736;28;20085;-62
2023/03/07 10:11:34;;;;;;;6.40;4.17;;;9.90;99.90;;;;;;4210158;28;20093;-63
2023/03/07 10:13:47;;;;;;;10.30;6.37;;;10.10;99.90;;;;;;4210452;28;20105;-67
2023/03/07 10:15:54;;;;;;;11.37;6.30;;;10.20;99.90;;;;;;4210591;28;20040;-64
2023/03/07 10:18:43;;;;;;;7.07;4.80;;;10.00;99.90;;;;;;4211066;28;20036;-63
2023/03/07 10:21:02;;;;;;;7.60;4.33;;;9.80;99.90;;;;;;4193528;28;20085;-62
2023/03/07 10:23:28;;;;;;;6.47;3.63;;;9.70;99.90;;;;;;4209704;28;20086;-62
2023/03/07 10:25:44;;;;;;;8.37;4.00;;;9.80;99.90;;;;;;4210992;28;20032;-63
2023/03/07 10:27:46;;;;;;;10.33;6.23;;;9.90;99.90;;;;;;4207841;28;20111;-62
2023/03/07 10:29:50;;;;;;;9.50;4.53;;;9.90;99.90;;;;;;4210474;28;20044;-66
2023/03/07 10:32:02;;;;;;;6.40;3.80;;;9.90;99.90;;;;;;4209373;28;20461;-64
2023/03/07 10:34:27;;;;;;;9.87;4.00;;;9.70;99.90;;;;;;4191912;28;20401;-61
2023/03/07 10:36:45;;;;;;;7.60;4.07;;;9.40;99.90;;;;;;4209314;28;20093;-62